Johnstown, Pennsylvania
Current Conditions -  °F | °C
As of 8:54 AM on Saturday 22 Nov 2014 (Local Time) from KJST Reporting Station
Clear Clear  
Wind Chill: 22°   Ceiling: Unl
Heat Index: 32°   Visibility: 10mi
Dew Point: -3°   Wind: 14mph
Humidity: 22%   Direction: 200°SSW
Pressure: 30.28"   Gusts: NA
Location:  40.33°N, 78.92°W
Report Text: KJST 221354Z AUTO 20012KT 10SM CLR 00/M19 A3028 RMK AO2 SLP287 T00001194
Loading
Personal Weather Stations






























Interactive Weather Map New forecast layout! Learn more

10-Day Weather Forecast

Advertisements
Track Severe Weather on mobile